createdAt,value
2023-01-25T00:01:07.572Z,33.50
2023-01-25T00:03:34.538Z,38.80
2023-01-25T00:06:02.060Z,38.00
2023-01-25T00:08:28.922Z,41.53
2023-01-25T00:10:57.652Z,36.72
2023-01-25T00:13:25.268Z,36.63
2023-01-25T00:15:51.986Z,36.95
2023-01-25T00:18:18.764Z,40.75
2023-01-25T00:20:45.523Z,41.20
2023-01-25T00:23:12.244Z,37.30
2023-01-25T00:25:39.093Z,35.22
2023-01-25T00:28:05.964Z,40.38
2023-01-25T00:30:32.721Z,36.80
2023-01-25T00:33:16.586Z,39.25
2023-01-25T00:35:45.085Z,36.20
2023-01-25T00:38:35.118Z,33.90
2023-01-25T00:41:02.019Z,33.60
2023-01-25T00:43:28.805Z,40.47
2023-01-25T00:46:02.154Z,38.60
2023-01-25T00:48:30.149Z,31.80
2023-01-25T00:51:01.885Z,35.00
2023-01-25T00:53:28.907Z,32.53
2023-01-25T00:55:55.733Z,35.50
2023-01-25T00:58:22.477Z,34.33
2023-01-25T01:00:49.286Z,35.58
2023-01-25T01:03:16.804Z,37.80
2023-01-25T01:05:45.885Z,37.70
2023-01-25T01:08:14.406Z,39.45
2023-01-25T01:10:41.544Z,36.70
2023-01-25T01:13:09.026Z,36.97
2023-01-25T01:15:38.817Z,37.72
2023-01-25T01:18:05.650Z,37.28
2023-01-25T01:20:32.389Z,37.92
2023-01-25T01:22:59.316Z,35.92
2023-01-25T01:25:26.130Z,33.58
2023-01-25T01:27:52.905Z,36.63
2023-01-25T01:30:19.774Z,37.47
2023-01-25T01:32:46.692Z,36.50
2023-01-25T01:35:13.804Z,35.72
2023-01-25T01:37:43.303Z,35.85
2023-01-25T01:40:15.666Z,35.35
2023-01-25T01:43:03.477Z,36.75
2023-01-25T01:45:47.846Z,37.58
2023-01-25T01:48:57.420Z,35.92
2023-01-25T01:51:25.014Z,36.53
2023-01-25T01:54:08.660Z,35.13
2023-01-25T01:59:07.836Z,37.60
2023-01-25T02:01:35.610Z,40.33
2023-01-25T02:04:06.239Z,40.13
2023-01-25T02:06:50.711Z,41.38
2023-01-25T02:09:21.470Z,40.60
2023-01-25T02:11:51.016Z,40.42
2023-01-25T02:14:18.867Z,42.33
2023-01-25T02:16:46.371Z,41.63
2023-01-25T02:19:30.723Z,44.00
2023-01-25T02:22:00.289Z,40.17
2023-01-25T02:24:33.198Z,41.72
2023-01-25T02:27:00.162Z,38.25
2023-01-25T02:29:29.545Z,36.50
2023-01-25T02:32:06.609Z,39.35
2023-01-25T02:34:33.495Z,44.60
2023-01-25T02:37:00.913Z,42.28
2023-01-25T02:39:28.377Z,42.67
2023-01-25T02:41:55.191Z,39.45
2023-01-25T02:44:28.123Z,39.75
2023-01-25T02:46:56.367Z,41.20
2023-01-25T02:49:23.514Z,39.88
2023-01-25T02:51:55.858Z,40.70
2023-01-25T02:54:23.577Z,43.45
2023-01-25T02:56:50.920Z,39.78
2023-01-25T02:59:19.192Z,35.80
2023-01-25T03:01:51.159Z,38.58
2023-01-25T03:04:18.208Z,37.88
2023-01-25T03:06:45.010Z,36.42
2023-01-25T03:09:12.911Z,35.72
2023-01-25T03:11:44.494Z,35.92
2023-01-25T03:14:11.596Z,35.03
2023-01-25T03:16:39.081Z,34.97
2023-01-25T03:19:06.527Z,34.15
2023-01-25T03:21:33.411Z,39.08
2023-01-25T03:24:01.666Z,34.45
2023-01-25T03:26:55.746Z,35.65
2023-01-25T03:29:27.717Z,34.42
2023-01-25T03:31:54.541Z,40.97
2023-01-25T03:34:21.552Z,38.28
2023-01-25T03:36:48.407Z,37.53
2023-01-25T03:39:16.003Z,43.28
2023-01-25T03:41:43.605Z,35.28
2023-01-25T03:44:12.870Z,36.92
2023-01-25T03:46:42.367Z,35.42
2023-01-25T03:49:09.836Z,34.53
2023-01-25T03:51:36.910Z,36.88
2023-01-25T03:54:04.687Z,36.92
2023-01-25T03:56:34.814Z,35.17
2023-01-25T03:59:08.285Z,34.08
2023-01-25T04:01:36.179Z,33.95
2023-01-25T04:04:03.393Z,32.45
2023-01-25T04:06:30.375Z,35.88
2023-01-25T04:08:57.674Z,29.23
2023-01-25T04:11:26.385Z,31.63
2023-01-25T04:13:53.761Z,33.15
2023-01-25T04:16:22.958Z,34.10
2023-01-25T04:19:12.652Z,35.10
2023-01-25T04:21:40.327Z,33.65
2023-01-25T04:24:08.004Z,36.08
2023-01-25T04:26:38.050Z,33.05
2023-01-25T04:29:06.181Z,39.53
2023-01-25T04:31:33.704Z,41.17
2023-01-25T04:34:01.258Z,39.55
2023-01-25T04:36:28.660Z,37.08
2023-01-25T04:38:55.913Z,39.50
2023-01-25T04:41:26.891Z,37.78
2023-01-25T04:43:54.751Z,38.88
2023-01-25T04:46:21.997Z,39.50
2023-01-25T04:48:51.265Z,35.90
2023-01-25T04:51:18.458Z,36.95
2023-01-25T04:53:45.628Z,41.03
2023-01-25T04:56:12.764Z,34.78
2023-01-25T04:58:53.653Z,39.78
2023-01-25T05:01:22.644Z,36.10
2023-01-25T05:03:51.203Z,36.53
2023-01-25T05:06:32.947Z,32.30
2023-01-25T05:08:59.773Z,36.00
2023-01-25T05:11:27.065Z,34.80
2023-01-25T05:14:04.618Z,33.53
2023-01-25T05:16:33.245Z,36.83
2023-01-25T05:19:00.848Z,33.88
2023-01-25T05:21:59.344Z,33.75
2023-01-25T05:24:41.694Z,33.13
2023-01-25T05:27:11.976Z,34.30
2023-01-25T05:29:59.077Z,33.20
2023-01-25T05:32:46.233Z,34.35
2023-01-25T05:35:13.916Z,33.78
2023-01-25T05:37:40.709Z,36.88
2023-01-25T05:40:14.380Z,34.22
2023-01-25T05:42:41.911Z,35.90
2023-01-25T05:45:15.892Z,36.28
2023-01-25T05:47:45.168Z,34.63
2023-01-25T05:50:12.136Z,36.38
2023-01-25T05:52:58.004Z,35.58
2023-01-25T05:55:24.857Z,38.90
2023-01-25T05:57:56.696Z,33.95
2023-01-25T06:00:24.116Z,36.22
2023-01-25T06:02:51.108Z,33.22
2023-01-25T06:05:22.566Z,32.55
2023-01-25T06:07:49.698Z,35.38
2023-01-25T06:10:18.263Z,31.05
2023-01-25T06:12:47.359Z,32.17
2023-01-25T06:15:14.261Z,35.13
2023-01-25T06:17:41.400Z,33.67
2023-01-25T06:20:09.008Z,31.65
2023-01-25T06:22:36.141Z,33.45
2023-01-25T06:25:02.944Z,30.88
2023-01-25T06:27:30.555Z,29.98
2023-01-25T06:29:57.282Z,29.40
2023-01-25T06:32:26.028Z,31.25
2023-01-25T06:34:53.327Z,31.77
2023-01-25T06:37:23.029Z,27.58
2023-01-25T06:39:50.274Z,32.38
2023-01-25T06:42:17.014Z,31.73
2023-01-25T06:44:43.787Z,30.05
2023-01-25T06:47:11.309Z,28.85
2023-01-25T06:49:38.258Z,30.30
2023-01-25T06:52:05.187Z,24.60
2023-01-25T06:54:31.970Z,28.00
2023-01-25T06:56:58.764Z,27.20
2023-01-25T06:59:25.508Z,26.02
2023-01-25T07:01:52.364Z,25.73
2023-01-25T07:04:19.111Z,21.98
2023-01-25T07:06:45.882Z,23.50
2023-01-25T07:09:14.720Z,23.92
2023-01-25T07:11:41.545Z,22.05
2023-01-25T07:14:08.277Z,24.17
2023-01-25T07:16:38.713Z,24.88
2023-01-25T07:19:06.647Z,25.65
2023-01-25T07:21:33.797Z,21.83
2023-01-25T07:24:02.539Z,21.65
2023-01-25T07:26:29.977Z,25.20
2023-01-25T07:28:57.852Z,22.40
2023-01-25T07:31:26.173Z,20.65
2023-01-25T07:33:54.926Z,22.60
2023-01-25T07:36:21.916Z,22.02
2023-01-25T07:38:49.003Z,23.58
2023-01-25T07:41:16.557Z,25.40
2023-01-25T07:43:43.591Z,21.48
2023-01-25T07:46:12.791Z,23.35
2023-01-25T07:48:40.925Z,22.52
2023-01-25T07:51:16.541Z,19.58
2023-01-25T07:53:44.122Z,22.23
2023-01-25T07:56:12.576Z,22.00
2023-01-25T07:58:40.189Z,24.10
2023-01-25T08:01:12.758Z,22.63
2023-01-25T08:03:39.515Z,21.52
2023-01-25T08:06:07.425Z,19.33
2023-01-25T08:08:36.664Z,22.77
2023-01-25T08:11:14.126Z,21.13
2023-01-25T08:13:41.832Z,20.40
2023-01-25T08:16:09.094Z,26.80
2023-01-25T08:18:36.794Z,19.67
2023-01-25T08:21:03.977Z,22.23
2023-01-25T08:23:30.777Z,20.70
2023-01-25T08:26:02.855Z,20.70
2023-01-25T08:28:29.597Z,22.20
2023-01-25T08:31:04.582Z,21.73
2023-01-25T08:33:32.062Z,22.25
2023-01-25T08:35:58.996Z,24.50
2023-01-25T08:38:26.050Z,21.55
2023-01-25T08:40:52.856Z,23.30
2023-01-25T08:43:19.920Z,22.15
2023-01-25T08:45:47.919Z,24.98
2023-01-25T08:48:16.668Z,22.38
2023-01-25T08:50:48.036Z,28.52
2023-01-25T08:53:15.054Z,25.15
2023-01-25T08:55:43.119Z,20.85
2023-01-25T08:58:12.430Z,22.10
2023-01-25T09:00:40.119Z,24.02
2023-01-25T09:03:08.321Z,21.50
2023-01-25T09:05:39.460Z,23.38
2023-01-25T09:08:10.298Z,20.13
2023-01-25T09:10:37.088Z,20.48
2023-01-25T09:13:03.897Z,23.23
2023-01-25T09:15:30.710Z,19.13
2023-01-25T09:17:58.214Z,20.92
2023-01-25T09:20:25.290Z,21.60
2023-01-25T09:22:56.149Z,24.73
2023-01-25T09:25:23.030Z,21.90
2023-01-25T09:27:51.347Z,21.23
2023-01-25T09:30:19.308Z,21.98
2023-01-25T09:32:51.352Z,21.92
2023-01-25T09:35:18.384Z,22.05
2023-01-25T09:37:45.357Z,21.80
2023-01-25T09:40:23.661Z,22.20
2023-01-25T09:43:03.364Z,24.35
2023-01-25T09:45:34.693Z,21.95
2023-01-25T09:48:06.598Z,22.27
2023-01-25T09:50:36.832Z,25.83
2023-01-25T09:53:38.607Z,21.98
2023-01-25T09:56:18.097Z,25.15
2023-01-25T09:58:48.760Z,23.67
2023-01-25T10:01:38.741Z,22.80
2023-01-25T10:04:22.608Z,27.08
2023-01-25T10:09:33.241Z,25.08
2023-01-25T10:12:18.817Z,24.23
2023-01-25T10:14:45.653Z,22.83
2023-01-25T10:17:16.558Z,20.50
2023-01-25T10:20:30.260Z,24.85
2023-01-25T10:23:22.145Z,20.77
2023-01-25T10:25:59.467Z,26.05
2023-01-25T10:28:41.812Z,25.17
2023-01-25T10:31:19.623Z,24.85
2023-01-25T10:33:48.606Z,21.20
2023-01-25T10:36:20.539Z,19.27
2023-01-25T10:38:57.540Z,20.67
2023-01-25T10:41:36.487Z,23.40
2023-01-25T10:44:21.834Z,21.10
2023-01-25T10:47:27.658Z,23.20
2023-01-25T10:49:59.026Z,20.73
2023-01-25T10:52:27.311Z,20.95
2023-01-25T10:55:14.468Z,22.30
2023-01-25T10:57:48.057Z,19.73
2023-01-25T11:00:39.858Z,25.13
2023-01-25T11:03:19.267Z,20.00
2023-01-25T11:05:55.075Z,20.73
2023-01-25T11:08:25.721Z,19.98
2023-01-25T11:10:53.772Z,22.42
2023-01-25T11:13:24.645Z,22.52
2023-01-25T11:16:27.734Z,18.55
2023-01-25T11:18:56.774Z,18.80
2023-01-25T11:21:26.931Z,17.83
2023-01-25T11:24:09.322Z,18.38
2023-01-25T11:26:38.496Z,19.38
2023-01-25T11:29:17.626Z,22.10
2023-01-25T11:31:57.804Z,18.60
2023-01-25T11:34:29.375Z,21.65
2023-01-25T11:37:20.515Z,20.58
2023-01-25T11:40:15.941Z,22.27
2023-01-25T11:42:58.558Z,18.27
2023-01-25T11:45:30.968Z,19.40
2023-01-25T11:48:32.270Z,18.87
2023-01-25T11:51:08.956Z,20.40
2023-01-25T11:53:35.726Z,20.05
2023-01-25T11:56:23.670Z,20.33
2023-01-25T11:59:14.470Z,20.42
2023-01-25T12:02:08.585Z,20.33
2023-01-25T12:04:47.172Z,20.25
2023-01-25T12:07:41.148Z,20.55
2023-01-25T12:10:37.302Z,19.60
2023-01-25T12:13:39.425Z,18.65
2023-01-25T12:16:22.288Z,18.77
2023-01-25T12:19:07.844Z,18.40
2023-01-25T12:21:55.854Z,22.27
2023-01-25T12:24:33.396Z,19.60
2023-01-25T12:27:20.228Z,26.13
2023-01-25T12:29:52.554Z,21.65
2023-01-25T12:32:42.690Z,24.90
2023-01-25T12:35:27.515Z,21.95
2023-01-25T12:38:04.614Z,21.98
2023-01-25T12:40:43.046Z,21.95
2023-01-25T12:43:26.531Z,22.00
2023-01-25T12:45:55.636Z,21.98
2023-01-25T12:48:32.710Z,19.65
2023-01-25T12:51:00.553Z,21.85
2023-01-25T12:53:48.370Z,23.23
2023-01-25T12:56:44.099Z,25.20
2023-01-25T12:59:37.974Z,27.63
2023-01-25T13:05:37.193Z,24.98
2023-01-25T13:08:23.171Z,25.27
2023-01-25T13:11:12.844Z,25.77
2023-01-25T13:13:40.085Z,25.13
2023-01-25T13:16:41.404Z,25.95
2023-01-25T13:19:38.335Z,27.75
2023-01-25T13:22:06.554Z,26.00
2023-01-25T13:24:35.549Z,27.55
2023-01-25T13:27:28.306Z,25.10
2023-01-25T13:30:19.396Z,28.25
2023-01-25T13:32:52.327Z,28.88
2023-01-25T13:35:32.813Z,30.13
2023-01-25T13:38:18.379Z,26.50
2023-01-25T13:40:45.234Z,27.55
2023-01-25T13:43:13.204Z,26.48
2023-01-25T13:45:42.239Z,26.98
2023-01-25T13:48:18.966Z,27.50
2023-01-25T13:50:59.272Z,26.92
2023-01-25T13:53:33.154Z,24.10
2023-01-25T13:56:00.373Z,27.50
2023-01-25T13:58:30.139Z,27.88
2023-01-25T14:00:56.974Z,30.73
2023-01-25T14:03:29.900Z,32.05
2023-01-25T14:05:59.356Z,29.17
2023-01-25T14:08:28.147Z,26.10
2023-01-25T14:10:56.297Z,27.13
2023-01-25T14:13:23.557Z,28.92
2023-01-25T14:15:58.710Z,29.67
2023-01-25T14:18:32.352Z,28.10
2023-01-25T14:21:21.060Z,31.33
2023-01-25T14:23:49.271Z,29.75
2023-01-25T14:26:25.169Z,31.13
2023-01-25T14:29:01.357Z,29.55
2023-01-25T14:31:34.309Z,29.52
2023-01-25T14:34:04.360Z,30.45
2023-01-25T14:36:34.265Z,32.35
2023-01-25T14:39:03.790Z,30.33
2023-01-25T14:41:36.134Z,32.05
2023-01-25T14:44:06.009Z,31.58
2023-01-25T14:46:37.384Z,30.65
2023-01-25T14:49:13.298Z,33.15
2023-01-25T14:51:48.462Z,32.42
2023-01-25T14:54:28.342Z,28.65
2023-01-25T14:57:06.855Z,31.60
2023-01-25T14:59:34.238Z,32.78
2023-01-25T15:02:23.092Z,27.73
2023-01-25T15:05:17.891Z,30.70
2023-01-25T15:07:50.664Z,30.55
2023-01-25T15:10:22.516Z,32.22
2023-01-25T15:13:11.679Z,30.13
2023-01-25T15:16:03.614Z,28.63
2023-01-25T15:18:46.058Z,35.08
2023-01-25T15:21:15.976Z,31.48
2023-01-25T15:23:46.015Z,31.75
2023-01-25T15:26:24.024Z,29.67
2023-01-25T15:28:53.572Z,31.33
2023-01-25T15:31:30.178Z,30.85
2023-01-25T15:33:58.908Z,34.83
2023-01-25T15:36:32.338Z,30.52
2023-01-25T15:39:00.075Z,30.40
2023-01-25T15:41:27.540Z,27.23
2023-01-25T15:43:54.730Z,33.92
2023-01-25T15:46:27.927Z,26.98
2023-01-25T15:48:55.205Z,28.52
2023-01-25T15:51:23.405Z,32.90
2023-01-25T15:53:50.338Z,30.80
2023-01-25T15:56:18.575Z,28.23
2023-01-25T15:58:50.399Z,27.90
2023-01-25T16:01:19.095Z,25.17
2023-01-25T16:03:46.034Z,29.02
2023-01-25T16:06:25.211Z,27.05
2023-01-25T16:08:52.267Z,27.13
2023-01-25T16:11:19.091Z,25.48
2023-01-25T16:13:45.991Z,29.00
2023-01-25T16:16:21.036Z,30.08
2023-01-25T16:18:51.264Z,25.98
2023-01-25T16:21:20.453Z,28.65
2023-01-25T16:23:47.415Z,26.30
2023-01-25T16:26:25.931Z,28.23
2023-01-25T16:28:53.188Z,27.30
2023-01-25T16:31:31.836Z,28.15
2023-01-25T16:34:00.371Z,25.90
2023-01-25T16:36:27.282Z,27.02
2023-01-25T16:38:54.155Z,30.70
2023-01-25T16:41:20.966Z,26.92
2023-01-25T16:43:49.232Z,27.40
2023-01-25T16:46:21.628Z,26.05
2023-01-25T16:48:51.061Z,27.40
2023-01-25T16:51:22.258Z,27.65
2023-01-25T16:53:50.977Z,26.95
2023-01-25T16:56:23.186Z,25.52
2023-01-25T16:58:50.941Z,27.88
2023-01-25T17:01:19.643Z,27.85
2023-01-25T17:03:47.166Z,31.90
2023-01-25T17:06:21.155Z,30.20
2023-01-25T17:08:48.826Z,27.92
2023-01-25T17:11:18.802Z,28.45
2023-01-25T17:13:53.483Z,27.92
2023-01-25T17:16:22.084Z,29.98
2023-01-25T17:18:53.478Z,31.50
2023-01-25T17:21:21.195Z,27.60
2023-01-25T17:23:48.524Z,26.33
2023-01-25T17:26:16.982Z,27.40
2023-01-25T17:28:44.366Z,31.30
2023-01-25T17:31:32.284Z,28.10
2023-01-25T17:34:10.916Z,26.48
2023-01-25T17:36:37.694Z,25.77
2023-01-25T17:39:06.781Z,26.55
2023-01-25T17:41:33.863Z,28.52
2023-01-25T17:44:00.619Z,26.08
2023-01-25T17:46:30.175Z,26.23
2023-01-25T17:48:59.193Z,29.20
2023-01-25T17:51:26.585Z,30.98
2023-01-25T17:53:54.170Z,27.10
2023-01-25T17:56:21.291Z,30.15
2023-01-25T17:58:48.508Z,25.33
2023-01-25T18:01:18.609Z,29.70
2023-01-25T18:03:46.954Z,26.77
2023-01-25T18:06:16.886Z,27.80
2023-01-25T18:08:48.304Z,27.88
2023-01-25T18:11:19.072Z,27.40
2023-01-25T18:13:52.481Z,29.92
2023-01-25T18:18:50.650Z,28.92
2023-01-25T18:21:26.282Z,28.98
2023-01-25T18:24:16.263Z,25.95
2023-01-25T18:26:43.068Z,25.73
2023-01-25T18:29:09.854Z,28.00
2023-01-25T18:31:37.110Z,27.83
2023-01-25T18:34:04.162Z,31.23
2023-01-25T18:36:31.118Z,33.33
2023-01-25T18:39:01.527Z,28.15
2023-01-25T18:41:28.433Z,31.95
2023-01-25T18:43:56.772Z,35.13
2023-01-25T18:46:23.667Z,35.28
2023-01-25T18:48:51.235Z,39.70
2023-01-25T18:51:18.543Z,37.42
2023-01-25T18:53:47.794Z,40.80
2023-01-25T18:56:17.385Z,38.55
2023-01-25T18:58:44.458Z,37.65
2023-01-25T19:01:13.176Z,39.45
2023-01-25T19:03:40.103Z,39.80
2023-01-25T19:06:07.086Z,39.50
2023-01-25T19:08:35.654Z,38.47
2023-01-25T19:11:06.144Z,37.72
2023-01-25T19:13:40.062Z,39.55
2023-01-25T19:16:13.885Z,37.08
2023-01-25T19:18:46.411Z,40.85
2023-01-25T19:21:15.458Z,39.97
2023-01-25T19:23:42.783Z,38.88
2023-01-25T19:26:12.590Z,43.28
2023-01-25T19:28:39.770Z,34.35
2023-01-25T19:31:18.778Z,33.92
2023-01-25T19:33:46.004Z,35.42
2023-01-25T19:36:19.334Z,28.92
2023-01-25T19:41:19.509Z,32.10
2023-01-25T19:43:46.646Z,28.17
2023-01-25T19:46:18.982Z,31.40
2023-01-25T19:48:49.839Z,29.92
2023-01-25T19:51:22.848Z,29.05
2023-01-25T19:53:59.014Z,28.85
2023-01-25T19:56:30.352Z,30.20
2023-01-25T19:58:57.584Z,28.42
2023-01-25T20:01:29.357Z,28.35
2023-01-25T20:04:00.685Z,30.80
2023-01-25T20:06:28.011Z,30.65
2023-01-25T20:08:55.115Z,31.58
2023-01-25T20:11:27.503Z,31.05
2023-01-25T20:13:57.142Z,26.73
2023-01-25T20:16:25.414Z,31.27
2023-01-25T20:18:52.238Z,34.03
2023-01-25T20:21:21.458Z,30.63
2023-01-25T20:23:51.581Z,34.03
2023-01-25T20:26:23.323Z,26.23
2023-01-25T20:28:52.515Z,29.83
2023-01-25T20:31:25.304Z,30.77
2023-01-25T20:33:54.489Z,31.63
2023-01-25T20:36:21.399Z,28.75
2023-01-25T20:38:48.631Z,30.38
2023-01-25T20:41:17.922Z,30.67
2023-01-25T20:43:49.129Z,34.00
2023-01-25T20:46:16.850Z,30.67
2023-01-25T20:48:44.441Z,27.52
2023-01-25T20:51:14.059Z,31.63
2023-01-25T20:53:42.249Z,27.48
2023-01-25T20:56:10.722Z,31.70
2023-01-25T20:58:37.915Z,31.80
2023-01-25T21:01:11.970Z,30.23
2023-01-25T21:03:38.740Z,30.25
2023-01-25T21:06:07.273Z,30.85
2023-01-25T21:08:34.087Z,31.45
2023-01-25T21:11:01.206Z,31.02
2023-01-25T21:13:29.436Z,32.67
2023-01-25T21:16:03.799Z,31.05
2023-01-25T21:18:52.067Z,30.60
2023-01-25T21:21:32.696Z,29.48
2023-01-25T21:24:02.531Z,33.50
2023-01-25T21:26:32.105Z,29.00
2023-01-25T21:29:00.755Z,28.30
2023-01-25T21:31:32.805Z,29.63
2023-01-25T21:34:00.617Z,27.65
2023-01-25T21:36:27.896Z,27.90
2023-01-25T21:38:56.561Z,27.52
2023-01-25T21:41:25.761Z,27.95
2023-01-25T21:44:12.866Z,29.00
2023-01-25T21:46:40.544Z,29.92
2023-01-25T21:49:28.127Z,28.17
2023-01-25T21:52:02.530Z,25.13
2023-01-25T21:54:39.503Z,26.90
2023-01-25T21:57:16.413Z,28.15
2023-01-25T21:59:43.272Z,26.58
2023-01-25T22:02:16.930Z,24.98
2023-01-25T22:04:45.240Z,29.33
2023-01-25T22:07:12.618Z,27.73
2023-01-25T22:09:39.573Z,24.77
2023-01-25T22:12:06.675Z,31.77
2023-01-25T22:14:33.579Z,29.52
2023-01-25T22:17:00.597Z,26.27
2023-01-25T22:19:27.439Z,26.25
2023-01-25T22:21:54.212Z,29.13
2023-01-25T22:24:22.174Z,25.10
2023-01-25T22:26:48.976Z,21.00
2023-01-25T22:29:16.192Z,25.92
2023-01-25T22:31:44.088Z,26.17
2023-01-25T22:34:11.225Z,22.85
2023-01-25T22:36:38.434Z,23.35
2023-01-25T22:39:05.492Z,25.63
2023-01-25T22:41:36.118Z,24.48
2023-01-25T22:44:02.992Z,24.08
2023-01-25T22:46:30.321Z,19.35
2023-01-25T22:48:58.866Z,19.02
2023-01-25T22:51:27.688Z,16.58
2023-01-25T22:53:55.839Z,18.40
2023-01-25T22:56:32.060Z,21.38
2023-01-25T22:58:59.371Z,18.80
2023-01-25T23:01:29.485Z,19.90
2023-01-25T23:03:57.207Z,18.30
2023-01-25T23:06:26.804Z,22.38
2023-01-25T23:09:03.324Z,20.85
2023-01-25T23:11:35.624Z,18.25
2023-01-25T23:14:25.513Z,20.45
2023-01-25T23:16:52.561Z,18.48
2023-01-25T23:19:19.467Z,21.75
2023-01-25T23:21:46.223Z,21.38
2023-01-25T23:24:13.168Z,20.58
2023-01-25T23:26:46.350Z,21.70
2023-01-25T23:31:40.536Z,22.63
2023-01-25T23:34:08.015Z,25.45
2023-01-25T23:36:41.545Z,21.92
2023-01-25T23:39:11.221Z,22.73
2023-01-25T23:41:37.994Z,21.63
2023-01-25T23:44:05.017Z,22.38
2023-01-25T23:46:31.831Z,20.38
2023-01-25T23:48:58.629Z,21.52
2023-01-25T23:51:25.377Z,23.02
2023-01-25T23:53:53.548Z,19.77
2023-01-25T23:56:22.416Z,19.27
2023-01-25T23:58:49.762Z,22.20
